createdAt,value
2023-01-13T00:03:55.911Z,17.6
2023-01-13T00:08:58.718Z,17.6
2023-01-13T00:13:58.613Z,17.6
2023-01-13T00:18:58.768Z,17.5
2023-01-13T00:23:58.872Z,17.5
2023-01-13T00:28:58.952Z,17.6
2023-01-13T00:33:58.948Z,17.6
2023-01-13T00:38:59.222Z,17.6
2023-01-13T00:43:59.242Z,17.6
2023-01-13T00:48:59.522Z,17.5
2023-01-13T00:53:59.997Z,17.6
2023-01-13T00:59:00.173Z,17.6
2023-01-13T01:04:00.365Z,17.6
2023-01-13T01:09:00.544Z,17.5
2023-01-13T01:14:00.808Z,17.6
2023-01-13T01:19:00.813Z,17.5
2023-01-13T01:24:01.197Z,17.5
2023-01-13T01:29:04.101Z,17.6
2023-01-13T01:34:03.377Z,17.5
2023-01-13T01:39:03.698Z,17.5
2023-01-13T01:44:03.946Z,17.4
2023-01-13T01:49:04.286Z,17.5
2023-01-13T01:54:04.721Z,17.5
2023-01-13T01:59:04.931Z,17.5
2023-01-13T02:04:04.747Z,17.5
2023-01-13T02:09:05.086Z,17.5
2023-01-13T02:14:05.296Z,17.5
2023-01-13T02:19:05.572Z,17.5
2023-01-13T02:24:05.694Z,17.5
2023-01-13T02:29:05.826Z,17.5
2023-01-13T02:34:06.790Z,17.5
2023-01-13T02:39:06.830Z,17.5
2023-01-13T02:44:07.035Z,17.5
2023-01-13T02:49:07.215Z,17.5
2023-01-13T02:54:07.328Z,17.5
2023-01-13T02:59:10.135Z,17.4
2023-01-13T03:04:09.880Z,17.4
2023-01-13T03:09:10.069Z,17.5
2023-01-13T03:14:13.047Z,17.4
2023-01-13T03:19:12.591Z,17.4
2023-01-13T03:24:13.159Z,17.3
2023-01-13T03:29:13.540Z,17.5
2023-01-13T03:34:13.897Z,17.4
2023-01-13T03:39:14.190Z,17.5
2023-01-13T03:44:16.234Z,17.4
2023-01-13T03:49:16.312Z,17.4
2023-01-13T03:54:16.615Z,17.4
2023-01-13T03:59:16.808Z,17.4
2023-01-13T04:04:16.866Z,17.4
2023-01-13T04:09:17.946Z,17.4
2023-01-13T04:14:18.129Z,17.4
2023-01-13T04:19:18.484Z,17.4
2023-01-13T04:24:18.717Z,17.4
2023-01-13T04:29:18.704Z,17.4
2023-01-13T04:34:18.972Z,17.4
2023-01-13T04:39:18.940Z,17.4
2023-01-13T04:44:19.125Z,17.4
2023-01-13T04:49:19.550Z,17.3
2023-01-13T04:54:19.537Z,17.4
2023-01-13T04:59:19.738Z,17.3
2023-01-13T05:04:19.838Z,17.3
2023-01-13T05:09:22.617Z,17.3
2023-01-13T05:14:24.266Z,17.1
2023-01-13T05:19:25.120Z,17.3
2023-01-13T05:24:27.996Z,17.3
2023-01-13T05:29:27.694Z,17.3
2023-01-13T05:34:27.969Z,17.2
2023-01-13T05:39:28.073Z,17.1
2023-01-13T05:44:28.277Z,17.1
2023-01-13T05:49:28.596Z,17.1
2023-01-13T05:54:31.346Z,17.1
2023-01-13T05:59:30.983Z,17.2
2023-01-13T06:04:31.126Z,17.1
2023-01-13T06:09:31.329Z,17.2
2023-01-13T06:14:31.664Z,17.1
2023-01-13T06:19:31.856Z,17.1
2023-01-13T06:24:31.946Z,17.2
2023-01-13T06:29:31.922Z,17.1
2023-01-13T06:34:32.174Z,17.2
2023-01-13T06:39:32.602Z,17.2
2023-01-13T06:44:32.897Z,17.2
2023-01-13T06:49:33.181Z,17.2
2023-01-13T06:54:33.311Z,17.2
2023-01-13T06:59:33.441Z,17.2
2023-01-13T07:04:33.694Z,17.1
2023-01-13T07:09:34.026Z,17.1
2023-01-13T07:14:34.212Z,17.2
2023-01-13T07:19:34.341Z,17.1
2023-01-13T07:24:34.614Z,17.2
2023-01-13T07:29:34.965Z,17.2
2023-01-13T07:34:35.152Z,17.2
2023-01-13T07:39:39.058Z,17.2
2023-01-13T07:44:41.480Z,17.2
2023-01-13T07:49:41.253Z,17.2
2023-01-13T07:54:42.607Z,17.3
2023-01-13T07:59:42.863Z,17.3
2023-01-13T08:04:45.861Z,17.3
2023-01-13T08:09:45.614Z,17.3
2023-01-13T08:14:45.728Z,17.3
2023-01-13T08:19:45.867Z,17.3
2023-01-13T08:24:46.177Z,17.3
2023-01-13T08:29:46.179Z,17.3
2023-01-13T08:34:46.314Z,17.4
2023-01-13T08:39:46.563Z,17.4
2023-01-13T08:44:46.923Z,17.5
2023-01-13T08:49:47.019Z,17.5
2023-01-13T08:54:49.945Z,17.5
2023-01-13T08:59:49.840Z,17.5
2023-01-13T09:04:50.121Z,17.5
2023-01-13T09:09:50.447Z,17.5
2023-01-13T09:14:50.670Z,17.6
2023-01-13T09:19:53.758Z,17.6
2023-01-13T09:24:53.501Z,17.6
2023-01-13T09:29:53.655Z,17.7
2023-01-13T09:34:53.490Z,17.6
2023-01-13T09:39:53.937Z,17.7
2023-01-13T09:44:54.205Z,17.7
2023-01-13T09:49:54.472Z,17.7
2023-01-13T09:54:54.699Z,17.7
2023-01-13T09:59:55.018Z,17.7
2023-01-13T10:04:58.041Z,17.7
2023-01-13T10:09:57.676Z,17.8
2023-01-13T10:14:57.884Z,17.8
2023-01-13T10:19:57.928Z,17.8
2023-01-13T10:25:00.883Z,17.8
2023-01-13T10:30:00.651Z,17.8
2023-01-13T10:35:00.537Z,17.9
2023-01-13T10:40:00.805Z,17.8
2023-01-13T10:45:01.076Z,17.8
2023-01-13T10:50:01.353Z,17.8
2023-01-13T10:55:01.661Z,17.8
2023-01-13T11:00:01.820Z,17.9
2023-01-13T11:05:02.175Z,18
2023-01-13T11:10:02.544Z,18.1
2023-01-13T11:15:02.753Z,18.2
2023-01-13T11:20:02.962Z,18.3
2023-01-13T11:25:03.095Z,18.3
2023-01-13T11:30:03.308Z,18.4
2023-01-13T11:35:02.441Z,18.3
2023-01-13T11:40:03.126Z,18.4
2023-01-13T11:45:03.358Z,18.5
2023-01-13T11:50:03.410Z,18.5
2023-01-13T11:55:03.398Z,18.5
2023-01-13T12:00:03.580Z,18.5
2023-01-13T12:05:03.872Z,18.5
2023-01-13T12:10:05.063Z,18.5
2023-01-13T12:15:03.809Z,18.5
2023-01-13T12:20:04.018Z,18.7
2023-01-13T12:25:04.018Z,18.6
2023-01-13T12:30:04.317Z,18.7
2023-01-13T12:35:04.689Z,18.7
2023-01-13T12:40:04.906Z,18.7
2023-01-13T12:45:05.098Z,18.7
2023-01-13T12:50:05.184Z,18.7
2023-01-13T12:55:05.588Z,18.7
2023-01-13T13:00:08.615Z,18.8
2023-01-13T13:05:11.139Z,18.8
2023-01-13T13:10:10.772Z,18.8
2023-01-13T13:15:11.074Z,18.8
2023-01-13T13:20:11.288Z,18.7
2023-01-13T13:25:12.177Z,18.7
2023-01-13T13:30:12.230Z,18.7
2023-01-13T13:35:12.177Z,18.8
2023-01-13T13:40:12.433Z,18.9
2023-01-13T13:45:12.705Z,18.8
2023-01-13T13:50:12.912Z,18.8
2023-01-13T13:55:13.000Z,18.8
2023-01-13T14:00:13.215Z,18.8
2023-01-13T14:05:16.073Z,18.8
2023-01-13T14:10:15.774Z,18.8
2023-01-13T14:15:15.995Z,18.8
2023-01-13T14:20:16.178Z,18.8
2023-01-13T14:25:16.387Z,18.8
2023-01-13T14:30:16.705Z,18.9
2023-01-13T14:35:16.805Z,18.9
2023-01-13T14:40:17.175Z,18.9
2023-01-13T14:45:17.691Z,18.9
2023-01-13T14:50:20.641Z,18.9
2023-01-13T14:55:20.324Z,18.9
2023-01-13T15:00:20.465Z,18.8
2023-01-13T15:05:20.745Z,18.9
2023-01-13T15:10:21.039Z,18.8
2023-01-13T15:15:21.126Z,18.8
2023-01-13T15:20:21.033Z,18.9
2023-01-13T15:25:21.311Z,18.9
2023-01-13T15:30:24.213Z,18.9
2023-01-13T15:35:23.915Z,18.9
2023-01-13T15:40:23.886Z,18.9
2023-01-13T15:45:23.994Z,18.9
2023-01-13T15:50:23.947Z,18.9
2023-01-13T15:55:24.148Z,18.9
2023-01-13T16:00:24.468Z,18.8
2023-01-13T16:05:24.378Z,18.9
2023-01-13T16:10:27.328Z,18.9
2023-01-13T16:15:29.908Z,18.9
2023-01-13T16:20:32.435Z,18.8
2023-01-13T16:25:31.875Z,18.9
2023-01-13T16:30:31.942Z,18.9
2023-01-13T16:35:32.008Z,18.9
2023-01-13T16:40:32.251Z,18.9
2023-01-13T16:45:32.451Z,18.9
2023-01-13T16:50:32.624Z,18.9
2023-01-13T16:55:35.369Z,18.9
2023-01-13T17:00:37.772Z,18.9
2023-01-13T17:05:40.158Z,18.9
2023-01-13T17:10:39.872Z,18.9
2023-01-13T17:15:42.796Z,18.9
2023-01-13T17:20:42.534Z,19
2023-01-13T17:25:42.631Z,18.9
2023-01-13T17:30:42.933Z,18.9
2023-01-13T17:35:43.081Z,18.9
2023-01-13T17:40:46.272Z,18.9
2023-01-13T17:45:45.782Z,18.9
2023-01-13T17:50:48.702Z,19
2023-01-13T17:55:48.249Z,18.9
2023-01-13T18:00:48.335Z,18.9
2023-01-13T18:05:48.409Z,19
2023-01-13T18:10:48.434Z,18.8
2023-01-13T18:15:48.296Z,18.8
2023-01-13T18:20:48.060Z,18.7
2023-01-13T18:25:48.196Z,18.7
2023-01-13T18:30:48.144Z,18.6
2023-01-13T18:35:48.207Z,18.5
2023-01-13T18:40:48.517Z,18.5
2023-01-13T18:45:48.595Z,18.5
2023-01-13T18:50:48.962Z,18.5
2023-01-13T18:55:49.047Z,18.5
2023-01-13T19:00:51.916Z,18.5
2023-01-13T19:05:51.638Z,18.4
2023-01-13T19:10:51.952Z,18.4
2023-01-13T19:15:54.713Z,18.4
2023-01-13T19:20:54.478Z,18.3
2023-01-13T19:25:54.343Z,18.3
2023-01-13T19:30:54.511Z,18.3
2023-01-13T19:35:54.796Z,18.2
2023-01-13T19:40:54.933Z,18.2
2023-01-13T19:45:55.250Z,18.2
2023-01-13T19:50:56.382Z,18.1
2023-01-13T19:55:56.393Z,18.1
2023-01-13T20:00:59.384Z,18.1
2023-01-13T20:05:58.980Z,18.1
2023-01-13T20:10:59.389Z,18.1
2023-01-13T20:15:59.338Z,18.1
2023-01-13T20:20:59.285Z,18
2023-01-13T20:25:59.313Z,18
2023-01-13T20:30:59.404Z,18
2023-01-13T20:36:02.453Z,18
2023-01-13T20:41:02.121Z,18
2023-01-13T20:46:03.219Z,18
2023-01-13T20:51:04.144Z,18
2023-01-13T20:56:04.051Z,18
2023-01-13T21:01:04.271Z,18
2023-01-13T21:06:04.192Z,18
2023-01-13T21:11:05.317Z,18
2023-01-13T21:16:05.449Z,17.9
2023-01-13T21:21:05.573Z,18
2023-01-13T21:26:05.813Z,18
2023-01-13T21:31:05.956Z,18
2023-01-13T21:36:06.347Z,17.9
2023-01-13T21:41:09.444Z,17.9
2023-01-13T21:46:11.916Z,18
2023-01-13T21:51:11.655Z,18
2023-01-13T21:56:11.981Z,17.9
2023-01-13T22:01:12.337Z,17.9
2023-01-13T22:06:12.447Z,17.9
2023-01-13T22:11:15.458Z,17.9
2023-01-13T22:16:14.821Z,17.9
2023-01-13T22:21:15.063Z,17.9
2023-01-13T22:26:15.162Z,17.9
2023-01-13T22:31:15.824Z,17.8
2023-01-13T22:36:16.112Z,17.9
2023-01-13T22:41:16.231Z,17.9
2023-01-13T22:46:16.590Z,17.9
2023-01-13T22:51:19.459Z,17.9
2023-01-13T22:56:21.997Z,17.9
2023-01-13T23:01:21.944Z,17.8
2023-01-13T23:06:22.181Z,17.9
2023-01-13T23:11:22.480Z,17.8
2023-01-13T23:16:22.973Z,17.8
2023-01-13T23:21:23.304Z,17.8
2023-01-13T23:26:26.275Z,17.8
2023-01-13T23:31:26.038Z,17.8
2023-01-13T23:36:26.087Z,17.8
2023-01-13T23:41:26.612Z,17.8
2023-01-13T23:46:26.932Z,17.8
2023-01-13T23:51:26.915Z,17.8
2023-01-13T23:56:27.341Z,17.8
